createdAt,value
2022-12-08T00:01:06.461Z,3.42
2022-12-08T00:06:26.070Z,3.15
2022-12-08T00:11:28.281Z,4.35
2022-12-08T00:16:29.137Z,3.45
2022-12-08T00:21:30.392Z,3.10
2022-12-08T00:26:32.628Z,3.25
2022-12-08T00:31:33.781Z,3.72
2022-12-08T00:36:35.309Z,3.30
2022-12-08T00:41:54.762Z,3.78
2022-12-08T00:46:55.596Z,3.78
2022-12-08T00:51:56.449Z,3.75
2022-12-08T00:56:58.659Z,3.50
2022-12-08T01:02:00.118Z,3.53
2022-12-08T01:07:00.917Z,3.53
2022-12-08T01:12:03.101Z,3.70
2022-12-08T01:17:04.163Z,4.05
2022-12-08T01:22:05.002Z,4.10
2022-12-08T01:27:07.202Z,5.05
2022-12-08T01:32:09.546Z,3.22
2022-12-08T01:37:12.543Z,4.10
2022-12-08T01:42:20.995Z,3.40
2022-12-08T01:47:23.470Z,3.80
2022-12-08T01:52:27.869Z,3.75
2022-12-08T01:57:34.031Z,4.50
2022-12-08T02:02:43.038Z,3.97
2022-12-08T02:07:45.128Z,4.60
2022-12-08T02:12:48.069Z,3.75
2022-12-08T02:18:01.740Z,3.75
2022-12-08T02:23:08.723Z,4.28
2022-12-08T02:28:39.161Z,4.65
2022-12-08T02:34:06.437Z,4.25
2022-12-08T02:39:17.669Z,4.38
2022-12-08T02:44:24.934Z,4.70
2022-12-08T02:49:31.203Z,4.95
2022-12-08T02:54:32.114Z,4.32
2022-12-08T02:59:45.995Z,5.13
2022-12-08T03:04:56.002Z,4.68
2022-12-08T03:10:02.504Z,5.22
2022-12-08T03:15:09.495Z,5.13
2022-12-08T03:20:16.486Z,5.03
2022-12-08T03:25:22.104Z,4.75
2022-12-08T03:30:22.966Z,4.80
2022-12-08T03:35:27.654Z,5.60
2022-12-08T03:40:28.464Z,5.38
2022-12-08T03:45:29.268Z,6.22
2022-12-08T03:50:31.411Z,5.10
2022-12-08T03:55:32.200Z,5.22
2022-12-08T04:00:32.993Z,4.63
2022-12-08T04:05:35.155Z,5.70
2022-12-08T04:10:35.935Z,5.40
2022-12-08T04:15:36.799Z,5.78
2022-12-08T04:20:41.499Z,5.55
2022-12-08T04:25:42.368Z,5.15
2022-12-08T04:30:43.253Z,5.47
2022-12-08T04:35:45.594Z,5.18
2022-12-08T04:40:48.307Z,5.65
2022-12-08T04:45:49.251Z,5.72
2022-12-08T04:50:51.599Z,5.10
2022-12-08T04:55:52.387Z,4.90
2022-12-08T05:00:53.350Z,5.20
2022-12-08T05:05:55.595Z,4.65
2022-12-08T05:11:03.451Z,5.03
2022-12-08T05:16:06.312Z,4.78
2022-12-08T05:21:09.843Z,5.45
2022-12-08T05:26:10.648Z,6.07
2022-12-08T05:31:11.829Z,5.57
2022-12-08T05:36:16.237Z,5.55
2022-12-08T05:41:19.637Z,5.80
2022-12-08T05:46:20.530Z,5.38
2022-12-08T05:51:25.071Z,5.88
2022-12-08T05:56:26.072Z,5.80
2022-12-08T06:01:28.658Z,5.43
2022-12-08T06:06:32.368Z,5.65
2022-12-08T06:11:33.936Z,5.55
2022-12-08T06:16:34.797Z,5.57
2022-12-08T06:21:37.092Z,5.68
2022-12-08T06:26:37.901Z,6.65
2022-12-08T06:31:38.784Z,6.05
2022-12-08T06:36:41.009Z,6.45
2022-12-08T06:41:59.632Z,6.30
2022-12-08T06:47:00.980Z,5.68
2022-12-08T06:52:03.211Z,6.00
2022-12-08T06:57:04.596Z,5.68
2022-12-08T07:02:05.420Z,6.05
2022-12-08T07:07:07.651Z,5.80
2022-12-08T07:12:08.800Z,6.22
2022-12-08T07:17:09.669Z,6.15
2022-12-08T07:22:11.913Z,5.97
2022-12-08T07:27:12.793Z,5.90
2022-12-08T07:32:14.078Z,5.97
2022-12-08T07:37:16.381Z,5.82
2022-12-08T07:42:17.136Z,6.47
2022-12-08T07:47:20.693Z,6.18
2022-12-08T07:52:23.323Z,6.63
2022-12-08T07:57:24.116Z,5.88
2022-12-08T08:02:26.256Z,5.85
2022-12-08T08:07:32.030Z,6.95
2022-12-08T08:12:33.299Z,6.93
2022-12-08T08:17:40.058Z,7.07
2022-12-08T08:22:42.834Z,7.38
2022-12-08T08:27:43.990Z,6.05
2022-12-08T08:32:45.215Z,7.10
2022-12-08T08:37:49.413Z,7.20
2022-12-08T08:42:50.457Z,6.82
2022-12-08T08:47:51.255Z,6.50
2022-12-08T08:52:53.416Z,6.82
2022-12-08T08:57:54.194Z,7.47
2022-12-08T09:02:54.986Z,7.72
2022-12-08T09:07:57.317Z,6.72
2022-12-08T09:12:58.216Z,7.28
2022-12-08T09:17:59.005Z,6.85
2022-12-08T09:23:01.215Z,6.80
2022-12-08T09:28:02.012Z,6.78
2022-12-08T09:33:03.454Z,6.63
2022-12-08T09:38:05.905Z,6.63
2022-12-08T09:43:19.966Z,6.85
2022-12-08T09:48:25.525Z,6.93
2022-12-08T09:53:35.596Z,6.45
2022-12-08T09:58:48.974Z,6.68
2022-12-08T10:03:50.644Z,7.80
2022-12-08T10:09:12.481Z,6.15
2022-12-08T10:14:25.317Z,6.25
2022-12-08T10:19:28.686Z,6.20
2022-12-08T10:24:38.241Z,6.13
2022-12-08T10:29:39.359Z,5.90
2022-12-08T10:35:00.413Z,5.53
2022-12-08T10:40:06.990Z,5.90
2022-12-08T10:45:24.120Z,5.22
2022-12-08T10:50:30.699Z,6.28
2022-12-08T10:55:42.224Z,5.60
2022-12-08T11:00:43.278Z,5.50
2022-12-08T11:05:44.276Z,5.35
2022-12-08T11:10:46.667Z,5.57
2022-12-08T11:15:48.001Z,5.57
2022-12-08T11:20:48.796Z,5.60
2022-12-08T11:25:52.738Z,4.95
2022-12-08T11:30:59.691Z,4.43
2022-12-08T11:36:05.805Z,4.10
2022-12-08T11:41:16.079Z,3.78
2022-12-08T11:46:22.113Z,3.63
2022-12-08T11:51:31.430Z,4.22
2022-12-08T11:56:38.564Z,3.97
2022-12-08T12:01:42.489Z,3.55
2022-12-08T12:07:00.607Z,3.40
2022-12-08T12:12:16.992Z,3.00
2022-12-08T12:17:35.691Z,2.97
2022-12-08T12:22:38.845Z,3.15
2022-12-08T12:27:41.869Z,3.22
2022-12-08T12:32:46.093Z,2.70
2022-12-08T12:37:47.955Z,2.28
2022-12-08T12:43:26.070Z,3.08
2022-12-08T12:48:28.385Z,3.33
2022-12-08T12:53:51.931Z,3.75
2022-12-08T12:58:54.978Z,3.80
2022-12-08T13:04:07.271Z,3.40
2022-12-08T13:09:19.809Z,3.25
2022-12-08T13:14:37.042Z,3.30
2022-12-08T13:19:41.043Z,3.40
2022-12-08T13:24:43.886Z,3.30
2022-12-08T13:30:06.410Z,3.38
2022-12-08T13:35:13.021Z,3.50
2022-12-08T13:40:19.915Z,3.90
2022-12-08T13:46:12.223Z,3.47
2022-12-08T14:01:44.766Z,3.35
2022-12-08T14:06:49.197Z,3.47
2022-12-08T14:11:56.138Z,3.78
2022-12-08T14:17:01.416Z,3.95
2022-12-08T14:22:03.962Z,3.70
2022-12-08T14:27:08.382Z,3.38
2022-12-08T14:32:22.486Z,3.55
2022-12-08T14:37:25.258Z,3.28
2022-12-08T14:42:29.210Z,3.97
2022-12-08T14:47:33.312Z,3.65
2022-12-08T14:52:34.209Z,3.60
2022-12-08T14:57:36.507Z,4.03
2022-12-08T15:02:45.429Z,4.10
2022-12-08T15:07:49.665Z,4.50
2022-12-08T15:13:03.180Z,4.30
2022-12-08T15:18:13.320Z,5.30
2022-12-08T15:23:26.752Z,4.90
2022-12-08T15:28:30.346Z,4.65
2022-12-08T15:33:32.822Z,4.82
2022-12-08T15:38:38.699Z,4.80
2022-12-08T15:43:40.738Z,4.40
2022-12-08T15:48:43.076Z,4.15
2022-12-08T15:53:43.908Z,4.07
2022-12-08T15:58:54.298Z,4.80
2022-12-08T16:09:21.388Z,5.43
2022-12-08T16:15:23.395Z,4.88
2022-12-08T16:19:45.453Z,4.10
2022-12-08T16:24:46.316Z,4.50
2022-12-08T16:29:48.268Z,4.50
2022-12-08T16:34:51.854Z,4.80
2022-12-08T16:39:54.297Z,4.55
2022-12-08T16:44:55.171Z,4.30
2022-12-08T16:49:57.312Z,4.38
2022-12-08T16:54:58.228Z,4.65
2022-12-08T16:59:59.012Z,4.72
2022-12-08T17:05:01.181Z,3.88
2022-12-08T17:10:04.882Z,3.75
2022-12-08T17:15:08.356Z,4.63
2022-12-08T17:20:14.900Z,4.07
2022-12-08T17:25:16.421Z,4.20
2022-12-08T17:30:18.849Z,4.00
2022-12-08T17:35:21.606Z,4.45
2022-12-08T17:40:25.543Z,5.22
2022-12-08T17:45:28.852Z,4.30
2022-12-08T17:50:31.097Z,4.32
2022-12-08T17:55:31.891Z,3.80
2022-12-08T18:00:32.809Z,3.60
2022-12-08T18:05:35.364Z,3.65
2022-12-08T18:10:36.254Z,4.55
2022-12-08T18:15:39.306Z,4.05
2022-12-08T18:20:41.648Z,3.55
2022-12-08T18:25:42.479Z,3.95
2022-12-08T18:30:43.326Z,3.65
2022-12-08T18:35:45.595Z,4.10
2022-12-08T18:40:46.524Z,4.07
2022-12-08T18:45:47.462Z,4.25
2022-12-08T18:50:49.639Z,4.07
2022-12-08T18:55:52.591Z,4.25
2022-12-08T19:00:53.475Z,3.55
2022-12-08T19:06:04.321Z,4.20
2022-12-08T19:11:05.220Z,3.60
2022-12-08T19:16:06.839Z,4.15
2022-12-08T19:21:09.651Z,4.10
2022-12-08T19:26:13.188Z,4.57
2022-12-08T19:31:14.669Z,4.25
2022-12-08T19:36:18.677Z,3.88
2022-12-08T19:41:37.033Z,4.10
2022-12-08T19:46:40.471Z,4.40
2022-12-08T19:51:42.939Z,4.30
2022-12-08T19:56:43.876Z,3.97
2022-12-08T20:01:45.261Z,3.72
2022-12-08T20:06:48.193Z,3.50
2022-12-08T20:11:50.714Z,3.92
2022-12-08T20:16:52.129Z,3.92
2022-12-08T20:21:54.375Z,4.30
2022-12-08T20:26:55.254Z,4.20
2022-12-08T20:31:56.213Z,5.18
2022-12-08T20:36:58.463Z,5.35
2022-12-08T20:42:00.216Z,5.00
2022-12-08T20:47:01.199Z,5.15
2022-12-08T20:52:03.535Z,5.03
2022-12-08T20:57:04.667Z,5.43
2022-12-08T21:02:05.554Z,5.50
2022-12-08T21:07:08.937Z,4.85
2022-12-08T21:12:09.961Z,5.80
2022-12-08T21:17:11.119Z,5.72
2022-12-08T21:22:19.602Z,6.38
2022-12-08T21:27:21.050Z,5.97
2022-12-08T21:32:25.776Z,5.72
2022-12-08T21:37:32.297Z,5.68
2022-12-08T21:42:45.151Z,7.40
2022-12-08T21:47:47.972Z,6.13
2022-12-08T21:52:50.769Z,6.60
2022-12-08T21:57:51.850Z,7.22
2022-12-08T22:02:53.159Z,7.22
2022-12-08T22:07:55.647Z,7.22
2022-12-08T22:12:56.545Z,8.00
2022-12-08T22:17:57.558Z,8.15
2022-12-08T22:23:00.119Z,8.00
2022-12-08T22:28:01.172Z,7.90
2022-12-08T22:33:02.580Z,8.13
2022-12-08T22:38:04.891Z,7.72
2022-12-08T22:43:05.796Z,8.05
2022-12-08T22:48:07.045Z,8.00
2022-12-08T22:53:10.956Z,7.55
2022-12-08T22:58:11.944Z,8.80
2022-12-08T23:03:12.983Z,8.65
2022-12-08T23:08:18.269Z,8.93
2022-12-08T23:13:20.670Z,8.57
2022-12-08T23:18:21.637Z,9.23
2022-12-08T23:23:23.921Z,9.30
2022-12-08T23:28:24.892Z,9.35
2022-12-08T23:33:25.681Z,8.75
2022-12-08T23:38:27.897Z,8.82
2022-12-08T23:43:28.684Z,9.05
2022-12-08T23:48:29.708Z,9.07
2022-12-08T23:53:32.721Z,9.45
2022-12-08T23:58:34.772Z,10.13
